ENT3CB EDDH-LDZD
Flight info
| Callsign | ENT3CB |
|---|---|
| Flight time | 1h 38m |
| Altitude | 39000 |
| Route | AMLUH2G/33 AMLUH M852 DENIX DCT LARET DCT ARMUT DCT LAMSI DCT KUDUL |
| Aircraft | B738/M-VOLDFGIRWYHJ1X/EB1 |
Departure
| Time | 2026-05-04 17:12 |
|---|---|
| Airport | Hamburg Helmut Schmidt Airport (EDDH) |
Arrival
| Time | 2026-05-04 18:51 |
|---|---|
| Airport | Zadar Airport (LDZD) |
| Time | Latitude | Longitude | Altitude | Speed | Heading |
|---|---|---|---|---|---|
| 2026-05-04 16:50 | 53.62735 | 10.00296 | 49 ft | 0 kts | 63° |
| 2026-05-04 17:07 | 53.62734 | 10.00294 | 50 ft | 2 kts | 63° |
| 2026-05-04 17:08 | 53.62722 | 10.00256 | 44 ft | 4 kts | 63° |
| 2026-05-04 17:08 | 53.62709 | 10.00192 | 44 ft | 4 kts | 135° |
| 2026-05-04 17:08 | 53.62728 | 10.00172 | 48 ft | 2 kts | 153° |
| 2026-05-04 17:09 | 53.62729 | 10.00171 | 48 ft | 1 kts | 153° |
| 2026-05-04 17:11 | 53.62691 | 10.00205 | 47 ft | 15 kts | 153° |
| 2026-05-04 17:11 | 53.62595 | 10.00250 | 49 ft | 14 kts | 204° |
| 2026-05-04 17:11 | 53.62695 | 9.99890 | 45 ft | 51 kts | 333° |
| 2026-05-04 17:12 | 53.63234 | 9.99421 | 49 ft | 120 kts | 332° |
| 2026-05-04 17:12 | 53.65101 | 9.97810 | 947 ft | 165 kts | 332° |
| 2026-05-04 17:13 | 53.68779 | 9.94792 | 2471 ft | 223 kts | 341° |
| 2026-05-04 17:14 | 53.73442 | 9.96078 | 4257 ft | 244 kts | 45° |
| 2026-05-04 17:14 | 53.74282 | 9.98515 | 4891 ft | 241 kts | 80° |
| 2026-05-04 17:14 | 53.74120 | 10.04040 | 6275 ft | 238 kts | 121° |
| 2026-05-04 17:15 | 53.73283 | 10.06599 | 6560 ft | 263 kts | 125° |
| 2026-05-04 17:15 | 53.71360 | 10.12157 | 7811 ft | 283 kts | 125° |
| 2026-05-04 17:16 | 53.69389 | 10.17986 | 9435 ft | 289 kts | 128° |
| 2026-05-04 17:16 | 53.64170 | 10.22707 | 10705 ft | 315 kts | 169° |
| 2026-05-04 17:17 | 53.62041 | 10.23620 | 11265 ft | 323 kts | 169° |
| 2026-05-04 17:17 | 53.55401 | 10.26548 | 13560 ft | 335 kts | 168° |
| 2026-05-04 17:18 | 53.53133 | 10.27577 | 14284 ft | 340 kts | 168° |
| 2026-05-04 17:18 | 53.48521 | 10.29683 | 15728 ft | 348 kts | 168° |
| 2026-05-04 17:19 | 53.43800 | 10.31835 | 17175 ft | 356 kts | 169° |
| 2026-05-04 17:19 | 53.38992 | 10.34009 | 18515 ft | 365 kts | 169° |
| 2026-05-04 17:20 | 53.34044 | 10.36229 | 19755 ft | 371 kts | 169° |
| 2026-05-04 17:20 | 53.29004 | 10.38489 | 20955 ft | 379 kts | 169° |
| 2026-05-04 17:20 | 53.26444 | 10.39636 | 21539 ft | 382 kts | 169° |
| 2026-05-04 17:21 | 53.21257 | 10.41956 | 22698 ft | 389 kts | 169° |
| 2026-05-04 17:21 | 53.16009 | 10.44298 | 23746 ft | 396 kts | 169° |
| 2026-05-04 17:22 | 53.13340 | 10.45484 | 24235 ft | 398 kts | 169° |
| 2026-05-04 17:22 | 53.10639 | 10.46549 | 24717 ft | 399 kts | 172° |
| 2026-05-04 17:23 | 53.02392 | 10.49203 | 26094 ft | 406 kts | 173° |
| 2026-05-04 17:23 | 52.99606 | 10.50077 | 26532 ft | 408 kts | 173° |
| 2026-05-04 17:23 | 52.94030 | 10.51855 | 27380 ft | 414 kts | 173° |
| 2026-05-04 17:24 | 52.91196 | 10.52769 | 27795 ft | 416 kts | 173° |
| 2026-05-04 17:24 | 52.82603 | 10.55552 | 28985 ft | 423 kts | 173° |
| 2026-05-04 17:25 | 52.79702 | 10.56491 | 29359 ft | 426 kts | 173° |
| 2026-05-04 17:25 | 52.73896 | 10.58367 | 30057 ft | 430 kts | 173° |
| 2026-05-04 17:26 | 52.67992 | 10.60268 | 30641 ft | 435 kts | 173° |
| 2026-05-04 17:26 | 52.59021 | 10.63147 | 31522 ft | 439 kts | 173° |
| 2026-05-04 17:27 | 52.53047 | 10.65061 | 32340 ft | 436 kts | 173° |
| 2026-05-04 17:27 | 52.47138 | 10.66946 | 33045 ft | 435 kts | 173° |
| 2026-05-04 17:28 | 52.41203 | 10.68833 | 33789 ft | 433 kts | 174° |
| 2026-05-04 17:29 | 52.32340 | 10.71641 | 34675 ft | 432 kts | 173° |
| 2026-05-04 17:29 | 52.23484 | 10.74436 | 35497 ft | 432 kts | 173° |
| 2026-05-04 17:30 | 52.14682 | 10.77202 | 36299 ft | 431 kts | 173° |
| 2026-05-04 17:31 | 52.08792 | 10.79048 | 36816 ft | 431 kts | 173° |
| 2026-05-04 17:31 | 51.99962 | 10.81805 | 37560 ft | 430 kts | 173° |
| 2026-05-04 17:32 | 51.94122 | 10.83623 | 38031 ft | 430 kts | 173° |
| 2026-05-04 17:33 | 51.85307 | 10.86360 | 38678 ft | 430 kts | 172° |
| 2026-05-04 17:33 | 51.82407 | 10.87597 | 38814 ft | 434 kts | 163° |
| 2026-05-04 17:34 | 51.74036 | 10.93580 | 38963 ft | 441 kts | 159° |
| 2026-05-04 17:34 | 51.71247 | 10.95642 | 38971 ft | 441 kts | 160° |
| 2026-05-04 17:35 | 51.57339 | 11.05699 | 38971 ft | 438 kts | 160° |
| 2026-05-04 17:36 | 51.51772 | 11.09669 | 38972 ft | 438 kts | 160° |
| 2026-05-04 17:36 | 51.46247 | 11.13599 | 38968 ft | 437 kts | 160° |
| 2026-05-04 17:37 | 51.40687 | 11.17544 | 38972 ft | 437 kts | 160° |
| 2026-05-04 17:37 | 51.35130 | 11.21477 | 38972 ft | 437 kts | 160° |
| 2026-05-04 17:38 | 51.29574 | 11.25399 | 38977 ft | 437 kts | 160° |
| 2026-05-04 17:38 | 51.24005 | 11.29319 | 38966 ft | 437 kts | 160° |
| 2026-05-04 17:39 | 51.15680 | 11.35161 | 38971 ft | 438 kts | 160° |
| 2026-05-04 17:39 | 51.10093 | 11.39069 | 38967 ft | 439 kts | 160° |
| 2026-05-04 17:40 | 51.04494 | 11.42974 | 38972 ft | 439 kts | 160° |
| 2026-05-04 17:40 | 50.98890 | 11.46873 | 38966 ft | 440 kts | 160° |
| 2026-05-04 17:41 | 50.93321 | 11.50738 | 38972 ft | 440 kts | 160° |
| 2026-05-04 17:41 | 50.87700 | 11.54627 | 38970 ft | 441 kts | 160° |
| 2026-05-04 17:42 | 50.82077 | 11.58509 | 38970 ft | 441 kts | 160° |
| 2026-05-04 17:42 | 50.76447 | 11.62384 | 38969 ft | 441 kts | 160° |
| 2026-05-04 17:43 | 50.70849 | 11.66228 | 38972 ft | 442 kts | 161° |
| 2026-05-04 17:43 | 50.65206 | 11.70092 | 38969 ft | 442 kts | 161° |
| 2026-05-04 17:44 | 50.59559 | 11.73950 | 38967 ft | 442 kts | 161° |
| 2026-05-04 17:44 | 50.53913 | 11.77796 | 38963 ft | 442 kts | 161° |
| 2026-05-04 17:45 | 50.48271 | 11.81630 | 38964 ft | 442 kts | 161° |
| 2026-05-04 17:45 | 50.42670 | 11.85426 | 38961 ft | 441 kts | 160° |
| 2026-05-04 17:46 | 50.37033 | 11.89236 | 38969 ft | 441 kts | 160° |
| 2026-05-04 17:46 | 50.31398 | 11.93035 | 38966 ft | 441 kts | 160° |
| 2026-05-04 17:47 | 50.25768 | 11.96820 | 38964 ft | 441 kts | 160° |
| 2026-05-04 17:47 | 50.20134 | 12.00600 | 38968 ft | 440 kts | 160° |
| 2026-05-04 17:48 | 50.14541 | 12.04342 | 38966 ft | 440 kts | 160° |
| 2026-05-04 17:48 | 50.08911 | 12.08099 | 38965 ft | 440 kts | 161° |
| 2026-05-04 17:49 | 50.03283 | 12.11844 | 38961 ft | 440 kts | 161° |
| 2026-05-04 17:49 | 49.97657 | 12.15579 | 38975 ft | 440 kts | 160° |
| 2026-05-04 17:50 | 49.92026 | 12.19308 | 38973 ft | 440 kts | 160° |
| 2026-05-04 17:50 | 49.86431 | 12.23004 | 38968 ft | 440 kts | 160° |
| 2026-05-04 17:51 | 49.80795 | 12.26719 | 38967 ft | 440 kts | 161° |
| 2026-05-04 17:51 | 49.75156 | 12.30426 | 38971 ft | 440 kts | 161° |
| 2026-05-04 17:52 | 49.69791 | 12.35068 | 38964 ft | 447 kts | 146° |
| 2026-05-04 17:52 | 49.64902 | 12.41034 | 38963 ft | 448 kts | 145° |
| 2026-05-04 17:53 | 49.60066 | 12.46985 | 38963 ft | 448 kts | 145° |
| 2026-05-04 17:53 | 49.55169 | 12.52927 | 38954 ft | 448 kts | 145° |
| 2026-05-04 17:54 | 49.50254 | 12.58831 | 38960 ft | 448 kts | 145° |
| 2026-05-04 17:54 | 49.45331 | 12.64717 | 38955 ft | 448 kts | 145° |
| 2026-05-04 17:55 | 49.40403 | 12.70596 | 38947 ft | 449 kts | 145° |
| 2026-05-04 17:55 | 49.35502 | 12.76427 | 38957 ft | 449 kts | 145° |
| 2026-05-04 17:56 | 49.30557 | 12.82297 | 38945 ft | 449 kts | 145° |
| 2026-05-04 17:56 | 49.25616 | 12.88148 | 38947 ft | 449 kts | 145° |
| 2026-05-04 17:57 | 49.20666 | 12.93994 | 38942 ft | 450 kts | 145° |
| 2026-05-04 17:57 | 49.15715 | 12.99826 | 38944 ft | 449 kts | 145° |
| 2026-05-04 17:58 | 49.10788 | 13.05613 | 38938 ft | 450 kts | 145° |
| 2026-05-04 17:58 | 49.05833 | 13.11420 | 38936 ft | 449 kts | 145° |
| 2026-05-04 17:59 | 49.00870 | 13.17221 | 38931 ft | 449 kts | 145° |
| 2026-05-04 18:00 | 48.93432 | 13.25887 | 38929 ft | 449 kts | 145° |
| 2026-05-04 18:00 | 48.88470 | 13.31650 | 38928 ft | 449 kts | 145° |
| 2026-05-04 18:01 | 48.83541 | 13.37360 | 38920 ft | 449 kts | 145° |
| 2026-05-04 18:01 | 48.78576 | 13.43098 | 38918 ft | 449 kts | 146° |
| 2026-05-04 18:02 | 48.71122 | 13.51686 | 38919 ft | 449 kts | 145° |
| 2026-05-04 18:02 | 48.66052 | 13.57179 | 38910 ft | 446 kts | 154° |
| 2026-05-04 18:03 | 48.60326 | 13.60530 | 38922 ft | 440 kts | 168° |
| 2026-05-04 18:03 | 48.54395 | 13.62830 | 38910 ft | 440 kts | 169° |
| 2026-05-04 18:04 | 48.48490 | 13.65104 | 38895 ft | 441 kts | 168° |
| 2026-05-04 18:05 | 48.39567 | 13.68618 | 38791 ft | 445 kts | 168° |
| 2026-05-04 18:05 | 48.36566 | 13.69808 | 38536 ft | 447 kts | 168° |
| 2026-05-04 18:05 | 48.33567 | 13.70999 | 38257 ft | 444 kts | 168° |
| 2026-05-04 18:05 | 48.30593 | 13.72180 | 37962 ft | 441 kts | 168° |
| 2026-05-04 18:06 | 48.24672 | 13.74526 | 37414 ft | 440 kts | 168° |
| 2026-05-04 18:06 | 48.21714 | 13.75695 | 37137 ft | 439 kts | 168° |
| 2026-05-04 18:06 | 48.18761 | 13.76859 | 36935 ft | 440 kts | 168° |
| 2026-05-04 18:07 | 48.12856 | 13.79183 | 36886 ft | 443 kts | 168° |
| 2026-05-04 18:07 | 48.06926 | 13.81514 | 36880 ft | 437 kts | 168° |
| 2026-05-04 18:08 | 48.01064 | 13.83813 | 36889 ft | 434 kts | 168° |
| 2026-05-04 18:08 | 47.95226 | 13.86095 | 36903 ft | 433 kts | 168° |
| 2026-05-04 18:09 | 47.83559 | 13.90640 | 36914 ft | 434 kts | 168° |
| 2026-05-04 18:10 | 47.77752 | 13.92894 | 36921 ft | 435 kts | 168° |
| 2026-05-04 18:10 | 47.71882 | 13.95168 | 36915 ft | 437 kts | 167° |
| 2026-05-04 18:11 | 47.65992 | 13.97444 | 36927 ft | 438 kts | 168° |
| 2026-05-04 18:11 | 47.60082 | 13.99723 | 36943 ft | 440 kts | 167° |
| 2026-05-04 18:12 | 47.54141 | 14.02008 | 36953 ft | 441 kts | 167° |
| 2026-05-04 18:12 | 47.48190 | 14.04292 | 36951 ft | 442 kts | 168° |
| 2026-05-04 18:13 | 47.42270 | 14.06559 | 36965 ft | 443 kts | 167° |
| 2026-05-04 18:14 | 47.33327 | 14.09974 | 36972 ft | 442 kts | 168° |
| 2026-05-04 18:14 | 47.27390 | 14.12234 | 36981 ft | 440 kts | 168° |
| 2026-05-04 18:15 | 47.15563 | 14.16720 | 36993 ft | 438 kts | 168° |
| 2026-05-04 18:16 | 47.09656 | 14.18953 | 36993 ft | 439 kts | 168° |
| 2026-05-04 18:16 | 47.03779 | 14.21170 | 37001 ft | 439 kts | 168° |
| 2026-05-04 18:17 | 46.94917 | 14.24503 | 36997 ft | 438 kts | 168° |
| 2026-05-04 18:18 | 46.86054 | 14.27825 | 37009 ft | 439 kts | 168° |
| 2026-05-04 18:18 | 46.80143 | 14.30034 | 37022 ft | 439 kts | 168° |
| 2026-05-04 18:19 | 46.71311 | 14.33326 | 37020 ft | 439 kts | 168° |
| 2026-05-04 18:19 | 46.65392 | 14.35525 | 37019 ft | 439 kts | 168° |
| 2026-05-04 18:20 | 46.59473 | 14.37720 | 37024 ft | 439 kts | 168° |
| 2026-05-04 18:20 | 46.53542 | 14.39914 | 37023 ft | 440 kts | 168° |
| 2026-05-04 18:21 | 46.47650 | 14.42089 | 37025 ft | 440 kts | 168° |
| 2026-05-04 18:21 | 46.41715 | 14.44275 | 37050 ft | 440 kts | 168° |
| 2026-05-04 18:22 | 46.35784 | 14.46455 | 37042 ft | 440 kts | 168° |
| 2026-05-04 18:22 | 46.29857 | 14.48628 | 37053 ft | 440 kts | 168° |
| 2026-05-04 18:23 | 46.23925 | 14.50796 | 36474 ft | 446 kts | 168° |
| 2026-05-04 18:23 | 46.20926 | 14.51892 | 35928 ft | 443 kts | 168° |
| 2026-05-04 18:23 | 46.17936 | 14.52984 | 35356 ft | 442 kts | 168° |
| 2026-05-04 18:24 | 46.14972 | 14.54065 | 34962 ft | 437 kts | 168° |
| 2026-05-04 18:24 | 46.12036 | 14.55135 | 34524 ft | 433 kts | 168° |
| 2026-05-04 18:24 | 46.09123 | 14.56195 | 34108 ft | 429 kts | 168° |
| 2026-05-04 18:24 | 46.06240 | 14.57243 | 33632 ft | 426 kts | 168° |
| 2026-05-04 18:25 | 46.03419 | 14.58267 | 33197 ft | 421 kts | 168° |
| 2026-05-04 18:25 | 46.00590 | 14.59292 | 32779 ft | 417 kts | 168° |
| 2026-05-04 18:25 | 45.97786 | 14.60307 | 32358 ft | 414 kts | 168° |
| 2026-05-04 18:25 | 45.95008 | 14.61312 | 31956 ft | 410 kts | 168° |
| 2026-05-04 18:26 | 45.92252 | 14.62307 | 31542 ft | 407 kts | 168° |
| 2026-05-04 18:26 | 45.89517 | 14.63294 | 31146 ft | 404 kts | 168° |
| 2026-05-04 18:26 | 45.86801 | 14.64273 | 30740 ft | 401 kts | 168° |
| 2026-05-04 18:26 | 45.84107 | 14.65244 | 30358 ft | 398 kts | 168° |
| 2026-05-04 18:27 | 45.81463 | 14.66195 | 29950 ft | 396 kts | 168° |
| 2026-05-04 18:27 | 45.78800 | 14.67152 | 29501 ft | 393 kts | 168° |
| 2026-05-04 18:27 | 45.76164 | 14.68099 | 29086 ft | 389 kts | 168° |
| 2026-05-04 18:27 | 45.73545 | 14.69039 | 28684 ft | 386 kts | 168° |
| 2026-05-04 18:28 | 45.70952 | 14.69968 | 28277 ft | 383 kts | 168° |
| 2026-05-04 18:28 | 45.68365 | 14.70894 | 27890 ft | 384 kts | 168° |
| 2026-05-04 18:28 | 45.65757 | 14.71826 | 27474 ft | 387 kts | 168° |
| 2026-05-04 18:28 | 45.63153 | 14.72756 | 27038 ft | 385 kts | 168° |
| 2026-05-04 18:29 | 45.60563 | 14.73681 | 26646 ft | 382 kts | 168° |
| 2026-05-04 18:29 | 45.58033 | 14.74584 | 26249 ft | 379 kts | 168° |
| 2026-05-04 18:29 | 45.55486 | 14.75492 | 25859 ft | 376 kts | 167° |
| 2026-05-04 18:29 | 45.52954 | 14.76394 | 25468 ft | 374 kts | 167° |
| 2026-05-04 18:30 | 45.47925 | 14.78182 | 24683 ft | 371 kts | 167° |
| 2026-05-04 18:30 | 45.45427 | 14.79069 | 24296 ft | 369 kts | 167° |
| 2026-05-04 18:30 | 45.42943 | 14.79951 | 23896 ft | 368 kts | 167° |
| 2026-05-04 18:31 | 45.40468 | 14.80828 | 23486 ft | 366 kts | 167° |
| 2026-05-04 18:31 | 45.38003 | 14.81701 | 23052 ft | 364 kts | 168° |
| 2026-05-04 18:31 | 45.35551 | 14.82568 | 22634 ft | 362 kts | 168° |
| 2026-05-04 18:31 | 45.33152 | 14.83416 | 22257 ft | 358 kts | 168° |
| 2026-05-04 18:32 | 45.30746 | 14.84266 | 21869 ft | 355 kts | 167° |
| 2026-05-04 18:32 | 45.28354 | 14.85111 | 21490 ft | 352 kts | 167° |
| 2026-05-04 18:32 | 45.25987 | 14.85946 | 21106 ft | 350 kts | 167° |
| 2026-05-04 18:32 | 45.23635 | 14.86775 | 20735 ft | 347 kts | 167° |
| 2026-05-04 18:33 | 45.21303 | 14.87596 | 20370 ft | 344 kts | 167° |
| 2026-05-04 18:33 | 45.18988 | 14.88409 | 20013 ft | 342 kts | 167° |
| 2026-05-04 18:33 | 45.16685 | 14.89218 | 19647 ft | 340 kts | 167° |
| 2026-05-04 18:33 | 45.14401 | 14.90020 | 19287 ft | 337 kts | 167° |
| 2026-05-04 18:34 | 45.12128 | 14.90818 | 18935 ft | 336 kts | 167° |
| 2026-05-04 18:34 | 45.09896 | 14.91600 | 18571 ft | 334 kts | 167° |
| 2026-05-04 18:34 | 45.07648 | 14.92387 | 18195 ft | 332 kts | 167° |
| 2026-05-04 18:34 | 45.05410 | 14.93170 | 17800 ft | 330 kts | 167° |
| 2026-05-04 18:35 | 45.03190 | 14.93947 | 17428 ft | 327 kts | 167° |
| 2026-05-04 18:35 | 45.00990 | 14.94716 | 17071 ft | 324 kts | 167° |
| 2026-05-04 18:35 | 44.98807 | 14.95478 | 16720 ft | 322 kts | 167° |
| 2026-05-04 18:35 | 44.96641 | 14.96234 | 16371 ft | 320 kts | 167° |
| 2026-05-04 18:36 | 44.94490 | 14.96984 | 16009 ft | 317 kts | 167° |
| 2026-05-04 18:36 | 44.92383 | 14.97718 | 15680 ft | 314 kts | 167° |
| 2026-05-04 18:36 | 44.90268 | 14.98454 | 15339 ft | 312 kts | 167° |
| 2026-05-04 18:36 | 44.88163 | 14.99186 | 14995 ft | 310 kts | 167° |
| 2026-05-04 18:37 | 44.86074 | 14.99912 | 14660 ft | 309 kts | 167° |
| 2026-05-04 18:37 | 44.83994 | 15.00634 | 14322 ft | 307 kts | 167° |
| 2026-05-04 18:37 | 44.81928 | 15.01351 | 13979 ft | 305 kts | 167° |
| 2026-05-04 18:37 | 44.79871 | 15.02065 | 13617 ft | 303 kts | 167° |
| 2026-05-04 18:38 | 44.77826 | 15.02774 | 13259 ft | 302 kts | 167° |
| 2026-05-04 18:38 | 44.75793 | 15.03478 | 12900 ft | 300 kts | 167° |
| 2026-05-04 18:38 | 44.73796 | 15.04169 | 12569 ft | 298 kts | 167° |
| 2026-05-04 18:38 | 44.71790 | 15.04863 | 12243 ft | 296 kts | 167° |
| 2026-05-04 18:39 | 44.69798 | 15.05551 | 11914 ft | 294 kts | 167° |
| 2026-05-04 18:39 | 44.67800 | 15.06098 | 11557 ft | 292 kts | 180° |
| 2026-05-04 18:39 | 44.65821 | 15.05650 | 11277 ft | 287 kts | 201° |
| 2026-05-04 18:39 | 44.64032 | 15.04428 | 10991 ft | 286 kts | 208° |
| 2026-05-04 18:40 | 44.62270 | 15.03085 | 10656 ft | 290 kts | 208° |
| 2026-05-04 18:40 | 44.60503 | 15.01727 | 10392 ft | 288 kts | 208° |
| 2026-05-04 18:40 | 44.58768 | 15.00409 | 10247 ft | 280 kts | 208° |
| 2026-05-04 18:40 | 44.57095 | 14.99152 | 10119 ft | 273 kts | 208° |
| 2026-05-04 18:41 | 44.55422 | 14.97902 | 9815 ft | 272 kts | 208° |
| 2026-05-04 18:41 | 44.53762 | 14.96664 | 9514 ft | 269 kts | 208° |
| 2026-05-04 18:41 | 44.52112 | 14.95436 | 9215 ft | 268 kts | 208° |
| 2026-05-04 18:41 | 44.50466 | 14.94213 | 8916 ft | 267 kts | 208° |
| 2026-05-04 18:42 | 44.48821 | 14.92992 | 8543 ft | 268 kts | 208° |
| 2026-05-04 18:42 | 44.47174 | 14.91770 | 8248 ft | 267 kts | 208° |
| 2026-05-04 18:42 | 44.45468 | 14.90762 | 7916 ft | 268 kts | 191° |
| 2026-05-04 18:42 | 44.43621 | 14.90887 | 7641 ft | 269 kts | 164° |
| 2026-05-04 18:43 | 44.41976 | 14.92110 | 7363 ft | 270 kts | 141° |
| 2026-05-04 18:43 | 44.40637 | 14.93897 | 7079 ft | 270 kts | 136° |
| 2026-05-04 18:43 | 44.39313 | 14.95764 | 6784 ft | 270 kts | 136° |
| 2026-05-04 18:43 | 44.37986 | 14.97617 | 6477 ft | 270 kts | 137° |
| 2026-05-04 18:44 | 44.36653 | 14.99459 | 6183 ft | 269 kts | 137° |
| 2026-05-04 18:44 | 44.36204 | 15.00078 | 6079 ft | 269 kts | 137° |
| 2026-05-04 18:44 | 44.34005 | 15.03131 | 5582 ft | 268 kts | 136° |
| 2026-05-04 18:44 | 44.32700 | 15.04973 | 5309 ft | 265 kts | 136° |
| 2026-05-04 18:45 | 44.31411 | 15.06750 | 5028 ft | 256 kts | 137° |
| 2026-05-04 18:45 | 44.30151 | 15.08460 | 4722 ft | 249 kts | 137° |
| 2026-05-04 18:45 | 44.28940 | 15.10100 | 4448 ft | 242 kts | 137° |
| 2026-05-04 18:45 | 44.27745 | 15.11716 | 4181 ft | 236 kts | 137° |
| 2026-05-04 18:46 | 44.26588 | 15.13283 | 3938 ft | 228 kts | 137° |
| 2026-05-04 18:46 | 44.25472 | 15.14795 | 3691 ft | 220 kts | 137° |
| 2026-05-04 18:46 | 44.24384 | 15.16270 | 3465 ft | 215 kts | 137° |
| 2026-05-04 18:46 | 44.23325 | 15.17706 | 3218 ft | 209 kts | 136° |
| 2026-05-04 18:47 | 44.22300 | 15.19095 | 2986 ft | 202 kts | 136° |
| 2026-05-04 18:47 | 44.21330 | 15.20411 | 2871 ft | 191 kts | 136° |
| 2026-05-04 18:47 | 44.20391 | 15.21685 | 2649 ft | 186 kts | 136° |
| 2026-05-04 18:47 | 44.19488 | 15.22910 | 2409 ft | 183 kts | 136° |
| 2026-05-04 18:48 | 44.18589 | 15.24129 | 2163 ft | 178 kts | 136° |
| 2026-05-04 18:48 | 44.17713 | 15.25318 | 1922 ft | 173 kts | 136° |
| 2026-05-04 18:48 | 44.16871 | 15.26462 | 1697 ft | 164 kts | 136° |
| 2026-05-04 18:48 | 44.16092 | 15.27520 | 1514 ft | 149 kts | 136° |
| 2026-05-04 18:49 | 44.15371 | 15.28497 | 1330 ft | 144 kts | 136° |
| 2026-05-04 18:49 | 44.14655 | 15.29470 | 1114 ft | 143 kts | 136° |
| 2026-05-04 18:49 | 44.13945 | 15.30435 | 921 ft | 142 kts | 136° |
| 2026-05-04 18:49 | 44.13248 | 15.31380 | 725 ft | 141 kts | 136° |
| 2026-05-04 18:50 | 44.12539 | 15.32297 | 596 ft | 137 kts | 135° |
| 2026-05-04 18:50 | 44.11873 | 15.33267 | 363 ft | 140 kts | 135° |
| 2026-05-04 18:50 | 44.11194 | 15.34197 | 273 ft | 127 kts | 136° |
| 2026-05-04 18:50 | 44.10646 | 15.34942 | 266 ft | 85 kts | 136° |
| 2026-05-04 18:51 | 44.10330 | 15.35362 | 265 ft | 49 kts | 136° |
| 2026-05-04 18:51 | 44.10129 | 15.35607 | 268 ft | 27 kts | 136° |
| 2026-05-04 18:51 | 44.10006 | 15.35674 | 269 ft | 17 kts | 218° |
| 2026-05-04 18:51 | 44.09927 | 15.35567 | 269 ft | 15 kts | 221° |
| 2026-05-04 18:52 | 44.09834 | 15.35533 | 269 ft | 13 kts | 172° |
| 2026-05-04 18:52 | 44.09747 | 15.35536 | 269 ft | 12 kts | 185° |
| 2026-05-04 18:52 | 44.09710 | 15.35472 | 269 ft | 8 kts | 275° |
| 2026-05-04 18:52 | 44.09737 | 15.35425 | 269 ft | 0 kts | 323° |